createdAt,value
2023-03-18T00:00:52.166Z,3.38
2023-03-18T00:03:19.157Z,3.40
2023-03-18T00:05:46.490Z,3.50
2023-03-18T00:08:13.453Z,3.22
2023-03-18T00:10:40.668Z,3.10
2023-03-18T00:13:07.655Z,3.53
2023-03-18T00:15:34.638Z,3.55
2023-03-18T00:18:01.721Z,3.65
2023-03-18T00:20:41.739Z,3.70
2023-03-18T00:23:09.184Z,3.70
2023-03-18T00:25:37.761Z,3.83
2023-03-18T00:28:06.576Z,3.85
2023-03-18T00:30:34.810Z,3.60
2023-03-18T00:33:01.874Z,3.53
2023-03-18T00:35:30.662Z,3.40
2023-03-18T00:38:03.947Z,3.63
2023-03-18T00:40:43.230Z,3.33
2023-03-18T00:43:12.688Z,3.60
2023-03-18T00:45:41.093Z,3.65
2023-03-18T00:48:08.980Z,3.70
2023-03-18T00:50:36.899Z,3.92
2023-03-18T00:53:04.361Z,4.15
2023-03-18T00:55:32.548Z,3.97
2023-03-18T00:57:59.600Z,4.00
2023-03-18T01:00:26.630Z,3.53
2023-03-18T01:02:55.019Z,4.20
2023-03-18T01:05:23.045Z,3.75
2023-03-18T01:07:50.283Z,3.50
2023-03-18T01:10:17.303Z,3.70
2023-03-18T01:12:47.166Z,3.20
2023-03-18T01:15:18.779Z,2.92
2023-03-18T01:17:46.612Z,2.85
2023-03-18T01:20:17.165Z,3.10
2023-03-18T01:22:44.880Z,3.30
2023-03-18T01:25:16.310Z,2.58
2023-03-18T01:27:44.367Z,3.15
2023-03-18T01:30:13.460Z,2.70
2023-03-18T01:32:41.316Z,2.50
2023-03-18T01:35:08.818Z,1.67
2023-03-18T01:37:35.923Z,3.00
2023-03-18T01:40:02.751Z,3.10
2023-03-18T01:42:30.127Z,2.70
2023-03-18T01:45:34.716Z,2.70
2023-03-18T01:48:01.857Z,2.90
2023-03-18T01:50:32.447Z,2.60
2023-03-18T01:53:04.943Z,2.70
2023-03-18T01:55:33.364Z,2.55
2023-03-18T01:58:03.373Z,2.65
2023-03-18T02:00:30.955Z,2.67
2023-03-18T02:02:58.397Z,2.78
2023-03-18T02:05:28.438Z,3.30
2023-03-18T02:07:55.661Z,2.80
2023-03-18T02:10:27.015Z,3.00
2023-03-18T02:13:04.188Z,3.10
2023-03-18T02:15:33.926Z,3.35
2023-03-18T02:18:14.371Z,3.00
2023-03-18T02:20:42.253Z,2.85
2023-03-18T02:23:16.122Z,2.90
2023-03-18T02:25:55.298Z,3.07
2023-03-18T02:28:26.161Z,3.30
2023-03-18T02:30:57.735Z,2.95
2023-03-18T02:33:29.305Z,3.15
2023-03-18T02:36:01.416Z,3.35
2023-03-18T02:38:28.186Z,4.03
2023-03-18T02:40:55.211Z,3.05
2023-03-18T02:43:24.264Z,3.30
2023-03-18T02:45:57.939Z,3.10
2023-03-18T02:48:33.234Z,3.40
2023-03-18T02:51:00.397Z,3.90
2023-03-18T02:53:27.442Z,3.50
2023-03-18T02:55:54.531Z,4.17
2023-03-18T02:58:21.514Z,3.63
2023-03-18T03:00:48.364Z,3.60
2023-03-18T03:03:15.629Z,3.80
2023-03-18T03:05:43.806Z,3.58
2023-03-18T03:08:11.758Z,3.88
2023-03-18T03:10:39.139Z,3.88
2023-03-18T03:13:07.639Z,4.15
2023-03-18T03:15:35.256Z,4.30
2023-03-18T03:18:02.194Z,4.50
2023-03-18T03:20:29.707Z,4.70
2023-03-18T03:22:57.171Z,4.30
2023-03-18T03:25:24.016Z,4.00
2023-03-18T03:27:51.070Z,4.00
2023-03-18T03:30:18.462Z,3.95
2023-03-18T03:32:46.459Z,4.10
2023-03-18T03:35:16.119Z,3.80
2023-03-18T03:37:43.896Z,3.85
2023-03-18T03:40:14.827Z,3.30
2023-03-18T03:42:42.070Z,3.37
2023-03-18T03:45:09.916Z,3.72
2023-03-18T03:47:36.811Z,3.45
2023-03-18T03:50:05.901Z,3.00
2023-03-18T03:52:33.094Z,2.97
2023-03-18T03:55:00.729Z,2.85
2023-03-18T03:57:27.806Z,3.20
2023-03-18T03:59:54.779Z,3.15
2023-03-18T04:02:23.790Z,3.10
2023-03-18T04:04:51.643Z,2.67
2023-03-18T04:07:20.674Z,2.97
2023-03-18T04:09:48.121Z,2.92
2023-03-18T04:12:15.060Z,2.77
2023-03-18T04:14:43.865Z,2.83
2023-03-18T04:17:11.475Z,2.70
2023-03-18T04:19:39.333Z,2.55
2023-03-18T04:22:06.346Z,2.50
2023-03-18T04:24:33.959Z,2.67
2023-03-18T04:27:01.220Z,2.53
2023-03-18T04:29:28.160Z,3.03
2023-03-18T04:31:56.706Z,3.08
2023-03-18T04:34:24.091Z,2.67
2023-03-18T04:36:51.169Z,2.13
2023-03-18T04:39:18.351Z,2.35
2023-03-18T04:41:45.405Z,2.30
2023-03-18T04:44:12.306Z,2.40
2023-03-18T04:46:39.679Z,2.42
2023-03-18T04:49:06.834Z,2.53
2023-03-18T04:51:33.802Z,2.30
2023-03-18T04:54:00.751Z,2.22
2023-03-18T04:56:27.672Z,2.75
2023-03-18T04:58:54.592Z,2.20
2023-03-18T05:01:21.612Z,2.50
2023-03-18T05:03:48.576Z,2.47
2023-03-18T05:06:27.524Z,2.20
2023-03-18T05:08:54.869Z,2.38
2023-03-18T05:11:21.853Z,2.42
2023-03-18T05:13:49.361Z,2.60
2023-03-18T05:16:16.531Z,2.00
2023-03-18T05:18:44.707Z,2.27
2023-03-18T05:21:11.716Z,2.90
2023-03-18T05:23:39.545Z,2.07
2023-03-18T05:26:06.702Z,1.53
2023-03-18T05:28:34.211Z,2.53
2023-03-18T05:31:01.481Z,1.90
2023-03-18T05:33:28.484Z,2.08
2023-03-18T05:35:55.667Z,2.30
2023-03-18T05:38:22.789Z,2.17
2023-03-18T05:40:49.960Z,2.03
2023-03-18T05:43:17.307Z,2.42
2023-03-18T05:45:44.426Z,1.63
2023-03-18T05:48:11.769Z,2.30
2023-03-18T05:50:41.948Z,1.73
2023-03-18T05:53:10.965Z,2.28
2023-03-18T05:55:38.716Z,2.58
2023-03-18T05:58:06.166Z,2.00
2023-03-18T06:00:33.180Z,2.40
2023-03-18T06:03:01.451Z,2.10
2023-03-18T06:05:30.043Z,2.45
2023-03-18T06:07:57.470Z,1.98
2023-03-18T06:10:25.382Z,2.30
2023-03-18T06:12:52.917Z,2.55
2023-03-18T06:15:21.356Z,2.15
2023-03-18T06:17:48.762Z,2.80
2023-03-18T06:20:16.047Z,1.90
2023-03-18T06:22:48.909Z,1.05
2023-03-18T06:25:20.711Z,1.97
2023-03-18T06:27:48.058Z,1.90
2023-03-18T06:30:16.187Z,1.75
2023-03-18T06:32:43.637Z,1.50
2023-03-18T06:35:11.968Z,1.50
2023-03-18T06:37:40.096Z,1.80
2023-03-18T06:40:09.216Z,1.93
2023-03-18T06:42:36.538Z,2.10
2023-03-18T06:45:04.207Z,1.83
2023-03-18T06:47:31.376Z,1.10
2023-03-18T06:49:58.426Z,1.90
2023-03-18T06:52:25.404Z,1.08
2023-03-18T06:54:52.373Z,1.58
2023-03-18T06:57:20.437Z,2.03
2023-03-18T06:59:48.062Z,1.90
2023-03-18T07:02:15.555Z,0.90
2023-03-18T07:04:42.715Z,1.42
2023-03-18T07:07:09.842Z,1.80
2023-03-18T07:09:36.789Z,1.63
2023-03-18T07:12:04.055Z,1.30
2023-03-18T07:14:30.906Z,1.67
2023-03-18T07:16:58.684Z,1.30
2023-03-18T07:19:25.666Z,1.60
2023-03-18T07:21:52.542Z,1.50
2023-03-18T07:24:21.586Z,1.50
2023-03-18T07:26:50.242Z,1.65
2023-03-18T07:29:18.310Z,0.80
2023-03-18T07:31:45.505Z,1.40
2023-03-18T07:34:13.724Z,0.50
2023-03-18T07:36:41.827Z,0.90
2023-03-18T07:39:10.254Z,0.88
2023-03-18T07:41:38.160Z,2.73
2023-03-18T07:44:07.771Z,2.63
2023-03-18T07:46:34.731Z,0.98
2023-03-18T07:49:02.045Z,1.08
2023-03-18T07:51:29.270Z,1.10
2023-03-18T08:18:31.451Z,1.20
2023-03-18T08:20:58.501Z,1.20
2023-03-18T08:23:25.551Z,1.75
2023-03-18T08:25:52.755Z,2.22
2023-03-18T08:28:20.082Z,1.08
2023-03-18T08:30:46.987Z,0.65
2023-03-18T08:33:14.025Z,0.90
2023-03-18T08:35:44.748Z,0.40
2023-03-18T08:38:11.584Z,1.25
2023-03-18T08:40:41.226Z,1.00
2023-03-18T08:43:08.486Z,1.10
2023-03-18T08:45:39.165Z,0.20
2023-03-18T08:48:07.232Z,0.90
2023-03-18T08:50:35.824Z,0.52
2023-03-18T08:53:03.437Z,0.70
2023-03-18T08:55:33.270Z,0.93
2023-03-18T08:58:00.547Z,0.47
2023-03-18T09:00:27.858Z,0.55
2023-03-18T09:02:54.753Z,0.88
2023-03-18T09:05:21.726Z,0.30
2023-03-18T09:07:48.600Z,0.77
2023-03-18T09:10:17.667Z,1.00
2023-03-18T09:12:45.970Z,0.38
2023-03-18T09:15:15.006Z,0.57
2023-03-18T09:17:59.928Z,1.17
2023-03-18T09:20:30.035Z,1.20
2023-03-18T09:22:57.567Z,1.63
2023-03-18T09:25:24.699Z,1.40
2023-03-18T09:27:52.012Z,0.70
2023-03-18T09:30:19.492Z,3.00
2023-03-18T09:32:46.527Z,2.17
2023-03-18T09:35:14.167Z,1.95
2023-03-18T09:37:41.191Z,1.25
2023-03-18T09:40:10.747Z,1.23
2023-03-18T09:42:45.861Z,2.50
2023-03-18T09:45:31.468Z,0.82
2023-03-18T09:48:30.619Z,1.02
2023-03-18T09:51:19.374Z,0.85
2023-03-18T09:53:54.217Z,0.88
2023-03-18T09:56:32.246Z,0.57
2023-03-18T09:59:18.436Z,0.40
2023-03-18T10:01:48.238Z,0.70
2023-03-18T10:04:33.788Z,0.50
2023-03-18T10:07:12.586Z,0.40
2023-03-18T10:09:44.653Z,0.63
2023-03-18T10:12:47.854Z,0.70
2023-03-18T10:15:21.788Z,0.63
2023-03-18T10:20:26.144Z,0.57
2023-03-18T10:22:56.388Z,0.70
2023-03-18T10:25:28.995Z,0.88
2023-03-18T10:28:08.448Z,0.40
2023-03-18T10:30:49.891Z,0.60
2023-03-18T10:33:46.589Z,1.00
2023-03-18T12:10:27.191Z,0.85
2023-03-18T19:09:18.777Z,1.58
2023-03-18T19:11:47.057Z,1.70
2023-03-18T19:14:25.600Z,1.60
2023-03-18T19:17:00.880Z,1.75
2023-03-18T19:19:31.055Z,1.85
2023-03-18T21:09:58.878Z,2.58
2023-03-18T21:12:28.616Z,2.72
2023-03-18T21:14:56.078Z,2.28
2023-03-18T21:17:25.991Z,2.53
2023-03-18T21:20:00.712Z,2.60
2023-03-18T21:22:33.393Z,2.85
2023-03-18T21:25:00.757Z,3.00
2023-03-18T21:27:29.811Z,2.60
2023-03-18T21:29:57.877Z,2.15
2023-03-18T21:32:32.821Z,2.60
2023-03-18T21:35:00.098Z,2.60
2023-03-18T21:37:27.587Z,2.38
2023-03-18T21:39:54.962Z,2.97
2023-03-18T21:42:30.078Z,2.63
2023-03-18T21:44:59.904Z,2.67
2023-03-18T21:47:27.366Z,2.63
2023-03-18T21:49:56.387Z,2.80
2023-03-18T21:52:32.501Z,11.05
2023-03-18T21:55:02.341Z,9.57
2023-03-18T21:57:30.539Z,8.25
2023-03-18T21:59:57.650Z,6.95
2023-03-18T22:02:33.952Z,3.35
2023-03-18T22:05:03.385Z,2.67
2023-03-18T22:07:32.046Z,3.20
2023-03-18T22:10:00.794Z,3.08
2023-03-18T22:12:32.740Z,5.70
2023-03-18T22:15:00.859Z,8.05
2023-03-18T22:29:50.900Z,3.80
2023-03-18T22:32:33.466Z,6.32
2023-03-18T22:35:00.583Z,3.60
2023-03-18T22:37:28.018Z,2.92
2023-03-18T22:39:55.082Z,3.47
2023-03-18T22:42:24.366Z,3.60
2023-03-18T22:44:52.112Z,4.28
2023-03-18T22:47:22.351Z,6.70
2023-03-18T22:49:50.779Z,3.72
2023-03-18T22:52:30.130Z,3.60
2023-03-18T22:55:01.310Z,4.20
2023-03-18T22:57:28.788Z,4.32
2023-03-18T22:59:56.848Z,5.60
2023-03-18T23:02:26.764Z,5.43
2023-03-18T23:04:55.832Z,3.63
2023-03-18T23:07:29.534Z,3.80
2023-03-18T23:10:01.788Z,3.67
2023-03-18T23:12:32.839Z,6.32
2023-03-18T23:15:04.010Z,4.97
2023-03-18T23:17:34.271Z,2.40
2023-03-18T23:20:01.445Z,4.25
2023-03-18T23:22:32.668Z,2.88
2023-03-18T23:25:00.275Z,2.60
2023-03-18T23:27:28.692Z,3.67
2023-03-18T23:29:56.234Z,4.28
2023-03-18T23:32:24.131Z,5.45
2023-03-18T23:34:53.208Z,3.33
2023-03-18T23:37:20.862Z,2.63
2023-03-18T23:39:48.240Z,2.72
2023-03-18T23:42:17.302Z,2.42
2023-03-18T23:44:46.700Z,3.03
2023-03-18T23:47:16.711Z,2.72
2023-03-18T23:49:44.194Z,2.67
2023-03-18T23:52:13.494Z,2.60
2023-03-18T23:54:41.076Z,3.42
2023-03-18T23:57:10.273Z,3.08
2023-03-18T23:59:38.192Z,3.00
